Time;durP1;ratioP1;P1;durP2;ratioP2;P2;SDS_P1;SDS_P2;PMS_P1;PMS_P2;Temp;Humidity;BMP_temperature;BMP_pressure;BME280_temperature;BME280_humidity;BME280_pressure;Samples;Min_cycle;Max_cycle;Signal;HPM_P1;HPM_P2
2022/12/23 00:00:40;;;;;;;51.63;28.88;;;2.60;99.90;;;;;;5054223;28;20378;-79
2022/12/23 00:03:05;;;;;;;53.47;26.15;;;2.60;99.90;;;;;;5054130;28;20032;-75
2022/12/23 00:05:35;;;;;;;45.35;22.70;;;2.70;99.90;;;;;;5053981;28;20044;-75
2022/12/23 00:08:01;;;;;;;50.15;25.20;;;2.60;99.90;;;;;;5053930;28;20017;-79
2022/12/23 00:10:27;;;;;;;58.40;28.27;;;2.70;99.90;;;;;;5054064;28;20083;-78
2022/12/23 00:15:37;;;;;;;51.30;24.35;;;2.60;99.90;;;;;;5053970;28;20036;-79
2022/12/23 00:18:02;;;;;;;57.88;29.17;;;2.60;99.90;;;;;;5053777;28;20371;-75
2022/12/23 00:20:28;;;;;;;53.88;27.10;;;2.60;99.90;;;;;;5053558;28;20094;-75
2022/12/23 00:23:05;;;;;;;46.75;23.75;;;2.60;99.90;;;;;;5053690;28;20021;-75
2022/12/23 00:25:44;;;;;;;54.75;26.20;;;2.70;99.90;;;;;;5053629;28;20040;-78
2022/12/23 00:28:17;;;;;;;59.85;26.10;;;2.70;99.90;;;;;;5052430;28;20075;-79
2022/12/23 00:30:45;;;;;;;;;;;2.60;99.90;;;;;;5054215;28;20394;-79
2022/12/23 00:33:11;;;;;;;41.65;20.98;;;2.70;99.90;;;;;;5053516;28;19905;-79
2022/12/23 00:35:36;;;;;;;93.72;44.13;;;2.70;99.90;;;;;;5053457;28;20052;-79
2022/12/23 00:38:02;;;;;;;69.15;34.95;;;2.60;99.90;;;;;;5053477;28;20372;-79
2022/12/23 00:43:11;;;;;;;43.63;20.52;;;2.60;99.90;;;;;;5053401;28;20044;-79
2022/12/23 00:45:37;;;;;;;35.80;20.27;;;2.60;99.90;;;;;;5053249;28;20033;-76
2022/12/23 00:50:51;;;;;;;55.25;26.42;;;2.60;99.90;;;;;;5046183;28;20402;-79
2022/12/23 00:53:16;;;;;;;44.58;21.23;;;2.60;99.90;;;;;;5053213;28;20025;-76
2022/12/23 00:55:45;;;;;;;42.45;21.38;;;2.50;99.90;;;;;;5053020;28;20021;-79
2022/12/23 00:58:10;;;;;;;36.80;20.52;;;2.60;99.90;;;;;;5051905;28;20014;-79
2022/12/23 01:06:04;;;;;;;66.78;29.30;;;2.50;99.90;;;;;;5053011;28;20090;-76
2022/12/23 01:08:30;;;;;;;51.47;26.63;;;2.50;99.90;;;;;;5051708;28;20033;-80
2022/12/23 01:10:55;;;;;;;56.97;26.52;;;2.50;99.90;;;;;;5053065;28;20040;-80
2022/12/23 01:13:21;;;;;;;46.63;22.67;;;2.50;99.90;;;;;;5053026;28;20584;-76
2022/12/23 01:15:47;;;;;;;42.88;19.85;;;2.50;99.90;;;;;;5053049;28;20485;-80
2022/12/23 01:18:12;;;;;;;54.42;25.88;;;2.50;99.90;;;;;;5052912;28;20040;-76
2022/12/23 01:20:39;;;;;;;49.78;25.98;;;2.50;99.90;;;;;;5047983;28;20056;-76
2022/12/23 01:23:06;;;;;;;93.13;32.95;;;2.40;99.90;;;;;;5031823;28;20029;-76
2022/12/23 01:25:31;;;;;;;58.92;27.67;;;2.50;99.90;;;;;;5031633;28;20087;-75
2022/12/23 01:27:57;;;;;;;61.10;28.80;;;2.40;99.90;;;;;;5033001;28;20025;-76
2022/12/23 01:30:23;;;;;;;74.78;29.63;;;2.40;99.90;;;;;;5032862;28;20033;-79
2022/12/23 01:32:48;;;;;;;118.28;36.00;;;2.40;99.90;;;;;;5033043;28;20014;-77
2022/12/23 01:35:14;;;;;;;117.57;35.88;;;2.40;99.90;;;;;;5039355;28;20104;-77
2022/12/23 01:37:40;;;;;;;120.22;34.42;;;2.40;99.90;;;;;;5051642;28;20029;-79
2022/12/23 01:40:06;;;;;;;134.98;40.75;;;2.40;99.90;;;;;;5052750;28;20028;-80
2022/12/23 01:42:45;;;;;;;125.38;37.63;;;2.40;99.90;;;;;;5052812;28;20528;-77
2022/12/23 01:45:26;;;;;;;155.27;37.67;;;2.40;99.90;;;;;;5052692;28;20029;-80
2022/12/23 01:48:16;;;;;;;283.08;58.72;;;2.40;99.90;;;;;;5052820;28;20437;-76
2022/12/23 01:51:09;;;;;;;262.25;56.25;;;2.40;99.90;;;;;;5052627;28;20086;-76
2022/12/23 01:53:45;;;;;;;390.98;77.88;;;2.30;99.90;;;;;;5051428;28;20112;-76
2022/12/23 01:56:19;;;;;;;452.33;86.35;;;2.30;99.90;;;;;;5052719;28;20032;-80
2022/12/23 01:58:49;;;;;;;419.75;80.60;;;2.40;99.90;;;;;;5052801;28;20044;-80
2022/12/23 02:04:04;;;;;;;250.60;49.88;;;2.30;99.90;;;;;;5052539;28;20563;-80
2022/12/23 02:09:28;;;;;;;145.90;37.22;;;2.30;99.90;;;;;;5056132;28;20521;-80
2022/12/23 02:12:17;;;;;;;370.27;67.07;;;2.30;99.90;;;;;;5056232;28;20063;-76
2022/12/23 02:17:51;;;;;;;152.40;39.53;;;2.30;99.90;;;;;;5056075;28;20076;-76
2022/12/23 02:20:35;;;;;;;159.18;39.80;;;2.30;99.90;;;;;;5054608;28;20139;-79
2022/12/23 02:23:30;;;;;;;148.63;37.28;;;2.30;99.90;;;;;;5056067;28;20063;-79
2022/12/23 02:26:29;;;;;;;205.07;50.10;;;2.30;99.90;;;;;;5055801;28;20056;-76
2022/12/23 02:29:19;;;;;;;107.53;33.40;;;2.30;99.90;;;;;;5054644;28;20094;-75
2022/12/23 02:32:06;;;;;;;121.13;33.92;;;2.20;99.90;;;;;;5055799;28;20112;-80
2022/12/23 02:34:54;;;;;;;88.60;31.17;;;2.20;99.90;;;;;;5055733;28;20037;-77
2022/12/23 02:37:32;;;;;;;129.32;40.22;;;2.20;99.90;;;;;;5055773;28;20032;-75
2022/12/23 02:40:14;;;;;;;123.18;41.03;;;2.20;99.90;;;;;;5054312;28;20024;-80
2022/12/23 02:43:01;;;;;;;270.02;56.70;;;2.20;99.90;;;;;;5054451;28;20479;-80
2022/12/23 02:46:05;;;;;;;173.60;43.17;;;2.10;99.90;;;;;;5055426;28;20482;-76
2022/12/23 02:48:38;;;;;;;258.08;57.42;;;2.10;99.90;;;;;;5054572;28;20450;-80
2022/12/23 02:51:04;;;;;;;;;;;2.10;99.90;;;;;;5055918;28;20021;-80
2022/12/23 02:53:34;;;;;;;241.27;51.05;;;2.10;99.90;;;;;;5055392;28;20000;-80
2022/12/23 02:56:02;;;;;;;439.33;80.03;;;2.10;99.90;;;;;;5055287;28;20024;-81
2022/12/23 02:58:34;;;;;;;234.75;50.47;;;2.10;99.90;;;;;;5055369;28;20013;-80
2022/12/23 03:01:02;;;;;;;280.10;60.78;;;2.00;99.90;;;;;;5055291;28;20021;-76
2022/12/23 03:03:28;;;;;;;229.48;51.00;;;2.00;99.90;;;;;;5055275;28;20028;-76
2022/12/23 03:05:54;;;;;;;255.40;57.10;;;2.00;99.90;;;;;;5053751;28;20510;-76
2022/12/23 03:08:33;;;;;;;233.45;50.13;;;2.00;99.90;;;;;;5053848;28;20025;-76
2022/12/23 03:11:10;;;;;;;347.17;71.28;;;2.00;99.90;;;;;;5055208;28;20031;-76
2022/12/23 03:13:54;;;;;;;234.15;51.90;;;2.00;99.90;;;;;;5053865;28;20033;-80
2022/12/23 03:16:22;;;;;;;188.75;50.00;;;2.00;99.90;;;;;;5054952;28;20021;-75
2022/12/23 03:18:50;;;;;;;198.25;55.10;;;2.00;99.90;;;;;;5053694;28;20428;-80
2022/12/23 03:21:33;;;;;;;102.82;35.33;;;2.00;99.90;;;;;;5054957;28;20537;-80
2022/12/23 03:24:10;;;;;;;105.40;38.35;;;2.00;99.90;;;;;;5053496;28;20433;-79
2022/12/23 03:26:51;;;;;;;89.85;33.50;;;2.00;99.90;;;;;;5054789;28;20037;-76
2022/12/23 03:29:27;;;;;;;89.30;32.55;;;2.10;99.90;;;;;;5053452;28;20029;-80
2022/12/23 03:31:57;;;;;;;69.88;31.33;;;2.10;99.90;;;;;;5054692;28;20028;-75
2022/12/23 03:34:28;;;;;;;62.58;29.00;;;2.10;99.90;;;;;;5054546;28;20017;-76
2022/12/23 03:36:59;;;;;;;65.57;29.17;;;2.10;99.90;;;;;;5054633;28;20482;-76
2022/12/23 03:39:39;;;;;;;63.00;28.73;;;2.10;99.90;;;;;;5054469;28;20025;-76
2022/12/23 03:42:12;;;;;;;59.53;28.48;;;2.10;99.90;;;;;;5054576;28;20079;-76
2022/12/23 03:44:42;;;;;;;57.95;24.67;;;2.10;99.90;;;;;;5054402;28;20035;-80
2022/12/23 03:47:30;;;;;;;47.55;23.75;;;2.10;99.90;;;;;;5054493;28;20025;-77
2022/12/23 03:50:05;;;;;;;50.38;22.95;;;2.10;99.90;;;;;;5054471;28;20542;-81
2022/12/23 03:52:36;;;;;;;43.33;22.77;;;2.10;99.90;;;;;;5053030;28;20043;-76
2022/12/23 03:55:05;;;;;;;40.05;20.52;;;2.20;99.90;;;;;;5054331;28;20020;-77
2022/12/23 03:57:44;;;;;;;48.35;20.63;;;2.20;99.90;;;;;;5054131;28;20033;-81
2022/12/23 04:00:10;;;;;;;42.88;20.42;;;2.20;99.90;;;;;;5052916;28;20028;-81
2022/12/23 04:03:05;;;;;;;45.75;22.08;;;2.30;99.90;;;;;;5054076;28;20380;-76
2022/12/23 04:05:34;;;;;;;36.15;20.10;;;2.20;99.90;;;;;;5054245;28;20399;-77
2022/12/23 04:08:00;;;;;;;40.53;20.73;;;2.30;99.90;;;;;;5053980;28;20493;-76
2022/12/23 04:10:26;;;;;;;45.50;21.20;;;2.30;99.90;;;;;;5053889;28;20028;-76
2022/12/23 04:12:53;;;;;;;42.40;21.67;;;2.20;99.90;;;;;;5052528;28;20051;-80
2022/12/23 04:15:24;;;;;;;40.78;22.25;;;2.20;99.90;;;;;;5041446;28;20033;-76
2022/12/23 04:17:51;;;;;;;42.75;21.95;;;2.30;99.90;;;;;;5032625;28;20060;-80
2022/12/23 04:20:17;;;;;;;38.97;20.52;;;2.30;99.90;;;;;;5033891;28;20095;-80
2022/12/23 04:22:43;;;;;;;46.65;21.05;;;2.30;99.90;;;;;;5033840;28;20534;-80
2022/12/23 04:25:09;;;;;;;36.15;20.45;;;2.30;99.90;;;;;;5033699;28;20033;-80
2022/12/23 04:27:36;;;;;;;45.70;20.70;;;2.30;99.90;;;;;;5033577;28;20141;-76
2022/12/23 04:30:03;;;;;;;48.22;22.55;;;2.30;99.90;;;;;;5033504;28;20105;-76
2022/12/23 04:32:29;;;;;;;40.53;20.73;;;2.20;99.90;;;;;;5032168;28;20029;-81
2022/12/23 04:34:54;;;;;;;39.63;19.60;;;2.30;99.90;;;;;;5039695;28;20032;-76
2022/12/23 04:37:20;;;;;;;43.25;21.65;;;2.30;99.90;;;;;;5052227;28;20052;-76
2022/12/23 04:39:45;;;;;;;52.95;23.27;;;2.30;99.90;;;;;;5052260;28;20025;-76
2022/12/23 04:42:11;;;;;;;46.05;21.52;;;2.30;99.90;;;;;;5052205;28;20033;-80
2022/12/23 04:44:36;;;;;;;37.90;19.25;;;2.30;99.90;;;;;;5053348;28;20033;-80
2022/12/23 04:47:02;;;;;;;38.65;19.48;;;2.20;99.90;;;;;;5053390;28;20100;-81
2022/12/23 04:49:28;;;;;;;38.10;18.33;;;2.20;99.90;;;;;;5053437;28;20017;-76
2022/12/23 04:51:53;;;;;;;36.00;17.98;;;2.20;99.90;;;;;;5052032;28;20409;-77
2022/12/23 04:54:19;;;;;;;39.38;21.45;;;2.20;99.90;;;;;;5053447;28;20029;-80
2022/12/23 04:56:44;;;;;;;47.67;21.45;;;2.20;99.90;;;;;;5051950;28;20025;-80
2022/12/23 04:59:10;;;;;;;42.90;20.48;;;2.20;99.90;;;;;;5053321;28;20064;-80
2022/12/23 05:01:35;;;;;;;68.70;28.23;;;2.20;99.90;;;;;;5053121;28;20458;-76
2022/12/23 05:04:01;;;;;;;80.88;30.60;;;2.20;99.90;;;;;;5051873;28;20021;-76
2022/12/23 05:06:27;;;;;;;99.50;35.15;;;2.20;99.90;;;;;;5051931;28;20025;-76
2022/12/23 05:08:52;;;;;;;158.43;41.25;;;2.10;99.90;;;;;;5052951;28;20052;-76
2022/12/23 05:11:18;;;;;;;96.40;33.88;;;2.10;99.90;;;;;;5053085;28;20394;-77
2022/12/23 05:13:44;;;;;;;81.35;31.73;;;2.10;99.90;;;;;;5051678;28;20470;-79
2022/12/23 05:16:09;;;;;;;116.25;39.47;;;2.10;99.90;;;;;;5052974;28;20020;-76
2022/12/23 05:18:35;;;;;;;97.47;35.58;;;2.10;99.90;;;;;;5053124;28;20437;-80
2022/12/23 05:21:00;;;;;;;152.20;47.33;;;2.10;99.90;;;;;;5052909;28;20499;-80
2022/12/23 05:23:26;;;;;;;87.70;35.65;;;2.10;99.90;;;;;;5051621;28;20040;-75
2022/12/23 05:25:53;;;;;;;74.78;31.60;;;2.00;99.90;;;;;;5051449;28;20039;-80
2022/12/23 05:28:20;;;;;;;55.47;24.80;;;2.00;99.90;;;;;;5043662;28;20028;-80
2022/12/23 05:30:46;;;;;;;45.72;21.83;;;2.00;99.90;;;;;;5052591;28;20078;-80
2022/12/23 05:33:11;;;;;;;47.30;22.98;;;2.00;99.90;;;;;;5039076;28;20021;-80
2022/12/23 05:35:37;;;;;;;58.75;26.67;;;1.90;99.90;;;;;;5047167;28;20032;-75
2022/12/23 05:38:02;;;;;;;47.17;22.48;;;1.90;99.90;;;;;;5051328;28;20021;-75
2022/12/23 05:40:31;;;;;;;49.03;24.55;;;1.90;99.90;;;;;;5052447;28;20525;-80
2022/12/23 05:42:57;;;;;;;32.63;19.00;;;1.90;99.90;;;;;;5053353;28;20505;-76
2022/12/23 05:45:23;;;;;;;54.78;21.30;;;1.80;99.90;;;;;;5054902;28;20033;-76
2022/12/23 05:47:49;;;;;;;43.53;21.67;;;1.80;99.90;;;;;;5054719;28;20168;-80
2022/12/23 05:50:14;;;;;;;51.17;22.35;;;1.80;99.90;;;;;;5054608;28;20030;-76
2022/12/23 05:52:40;;;;;;;56.58;23.80;;;1.80;99.90;;;;;;5054537;28;20028;-81
2022/12/23 05:55:06;;;;;;;34.58;17.52;;;1.80;99.90;;;;;;5043715;28;20577;-76
2022/12/23 05:57:32;;;;;;;42.47;22.50;;;1.80;99.90;;;;;;5055655;28;20033;-76
2022/12/23 05:59:57;;;;;;;42.65;21.27;;;1.80;99.90;;;;;;5055797;28;20025;-76
2022/12/23 06:02:23;;;;;;;77.53;27.33;;;1.80;99.90;;;;;;5050929;28;20071;-80
2022/12/23 06:04:49;;;;;;;47.47;22.65;;;1.80;99.90;;;;;;5055906;28;20040;-81
2022/12/23 06:07:15;;;;;;;52.67;23.33;;;1.80;99.90;;;;;;5056070;28;20021;-81
2022/12/23 06:09:41;;;;;;;52.22;25.20;;;1.80;99.90;;;;;;5054347;28;20536;-76
2022/12/23 06:12:07;;;;;;;325.52;63.45;;;1.80;99.90;;;;;;5055451;28;20029;-77
2022/12/23 06:14:33;;;;;;;161.07;39.00;;;1.80;99.90;;;;;;5055429;28;20035;-75
2022/12/23 06:16:58;;;;;;;353.85;60.85;;;1.80;99.90;;;;;;5051913;28;20044;-76
2022/12/23 06:19:25;;;;;;;384.00;67.97;;;1.80;99.90;;;;;;5054887;28;20528;-81
2022/12/23 06:21:51;;;;;;;304.10;60.90;;;1.90;99.90;;;;;;5055852;28;20071;-80
2022/12/23 06:24:16;;;;;;;155.90;36.83;;;1.80;99.90;;;;;;5054040;28;20033;-81
2022/12/23 06:26:42;;;;;;;288.40;56.70;;;1.90;99.90;;;;;;5055065;28;20052;-81
2022/12/23 06:29:07;;;;;;;117.95;33.83;;;1.90;99.90;;;;;;5047449;28;20021;-81
2022/12/23 06:31:33;;;;;;;153.63;34.00;;;1.80;99.90;;;;;;5055652;28;20052;-80
2022/12/23 06:33:58;;;;;;;139.35;32.75;;;1.80;99.90;;;;;;5055700;28;20024;-76
2022/12/23 06:36:24;;;;;;;100.43;31.85;;;1.80;99.90;;;;;;5054204;28;20479;-81
2022/12/23 06:38:50;;;;;;;100.95;25.77;;;1.80;99.90;;;;;;5046606;28;20021;-75
2022/12/23 06:41:18;;;;;;;82.72;24.73;;;1.80;99.90;;;;;;5061044;28;20382;-82
2022/12/23 06:43:44;;;;;;;139.57;30.63;;;1.70;99.90;;;;;;5049468;28;20033;-81
2022/12/23 06:46:09;;;;;;;127.75;33.80;;;1.70;99.90;;;;;;5048918;28;20054;-80
2022/12/23 06:48:35;;;;;;;119.75;26.40;;;1.70;99.90;;;;;;5046574;28;20048;-81
2022/12/23 06:51:00;;;;;;;89.13;23.63;;;1.70;99.90;;;;;;5047723;28;20122;-80
2022/12/23 06:53:26;;;;;;;139.10;28.77;;;1.70;99.90;;;;;;5050451;28;20144;-80
2022/12/23 06:56:02;;;;;;;106.43;23.52;;;1.70;99.90;;;;;;5051470;28;20033;-80
2022/12/23 06:58:28;;;;;;;69.90;18.88;;;1.70;99.90;;;;;;5049707;28;20055;-81
2022/12/23 07:00:54;;;;;;;47.15;17.65;;;1.70;99.90;;;;;;5050795;28;20550;-81
2022/12/23 07:03:19;;;;;;;200.80;38.03;;;1.70;99.90;;;;;;5050319;28;20032;-76
2022/12/23 07:05:49;;;;;;;387.45;93.78;;;1.70;99.90;;;;;;5049839;28;20083;-81
2022/12/23 07:08:15;;;;;;;253.52;66.43;;;1.60;99.90;;;;;;5050669;28;20029;-81
2022/12/23 07:10:40;;;;;;;127.03;41.63;;;1.70;99.90;;;;;;5052500;28;20066;-76
2022/12/23 07:13:06;;;;;;;90.97;38.72;;;1.70;99.90;;;;;;5053992;28;20049;-82
2022/12/23 07:15:32;;;;;;;155.23;52.35;;;1.70;99.90;;;;;;5052604;28;20013;-77
2022/12/23 07:17:57;;;;;;;279.40;73.53;;;1.70;99.90;;;;;;5052318;28;20032;-76
2022/12/23 07:20:23;;;;;;;124.03;49.53;;;1.70;99.90;;;;;;5053023;28;20053;-76
2022/12/23 07:22:49;;;;;;;99.10;43.40;;;1.70;99.90;;;;;;5052823;28;20025;-76
2022/12/23 07:25:15;;;;;;;98.80;42.22;;;1.70;99.90;;;;;;5049213;28;20537;-76
2022/12/23 07:27:41;;;;;;;116.55;45.65;;;1.80;99.90;;;;;;5040427;28;20063;-75
2022/12/23 07:30:07;;;;;;;100.63;43.45;;;1.80;99.90;;;;;;5052792;28;20049;-76
2022/12/23 07:32:33;;;;;;;101.53;44.00;;;1.80;99.90;;;;;;5051793;28;20083;-76
2022/12/23 07:34:58;;;;;;;126.72;53.55;;;1.80;99.90;;;;;;5050331;28;20045;-76
2022/12/23 07:37:24;;;;;;;105.75;46.45;;;1.80;99.90;;;;;;5051282;28;20100;-76
2022/12/23 07:39:50;;;;;;;100.07;47.70;;;1.80;99.90;;;;;;5047833;28;20044;-76
2022/12/23 07:42:15;;;;;;;94.65;44.85;;;1.90;99.90;;;;;;5049661;28;20646;-76
2022/12/23 07:44:41;;;;;;;93.55;47.90;;;1.90;99.90;;;;;;5051764;28;20040;-81
2022/12/23 07:47:07;;;;;;;80.47;45.25;;;1.80;99.90;;;;;;5053457;28;20047;-81
2022/12/23 07:49:33;;;;;;;75.35;42.90;;;1.90;99.90;;;;;;5052958;28;20033;-81
2022/12/23 07:51:58;;;;;;;84.45;40.95;;;2.00;99.90;;;;;;5046746;28;20029;-81
2022/12/23 07:54:24;;;;;;;85.40;45.92;;;2.00;99.90;;;;;;5052839;28;20498;-81
2022/12/23 07:56:50;;;;;;;107.05;50.58;;;2.10;99.90;;;;;;5053019;28;20029;-82
2022/12/23 07:59:15;;;;;;;96.68;46.85;;;2.00;99.90;;;;;;5044828;28;20033;-79
2022/12/23 08:01:41;;;;;;;79.88;39.70;;;2.10;99.90;;;;;;5053792;28;20083;-81
2022/12/23 08:04:06;;;;;;;80.53;38.40;;;2.10;99.90;;;;;;5052533;28;20040;-76
2022/12/23 08:06:35;;;;;;;101.88;40.33;;;2.10;99.90;;;;;;5051776;28;20013;-81
2022/12/23 08:09:01;;;;;;;155.18;38.75;;;2.10;99.90;;;;;;5049252;28;20557;-76
2022/12/23 08:11:27;;;;;;;54.88;24.38;;;2.00;99.90;;;;;;5050817;28;20029;-80
2022/12/23 08:13:53;;;;;;;51.47;23.58;;;2.00;99.90;;;;;;5050842;28;20498;-77
2022/12/23 08:16:18;;;;;;;61.08;27.08;;;2.00;99.90;;;;;;5051376;28;20021;-76
2022/12/23 08:18:44;;;;;;;74.18;30.42;;;2.00;99.90;;;;;;5050238;28;20510;-76
2022/12/23 08:21:16;;;;;;;71.35;30.70;;;2.10;99.90;;;;;;5050958;28;20102;-80
2022/12/23 08:23:42;;;;;;;69.15;27.95;;;2.10;99.90;;;;;;5049132;28;20021;-76
2022/12/23 08:26:09;;;;;;;63.35;27.80;;;2.10;99.90;;;;;;5051106;28;20037;-80
2022/12/23 08:28:36;;;;;;;75.20;33.10;;;2.20;99.90;;;;;;5047595;28;20017;-76
2022/12/23 08:31:15;;;;;;;113.43;40.83;;;2.20;99.90;;;;;;5032286;28;20025;-79
2022/12/23 08:33:43;;;;;;;151.35;54.80;;;2.20;99.90;;;;;;5033008;28;20360;-76
2022/12/23 08:36:13;;;;;;;116.05;45.55;;;2.20;99.90;;;;;;5031670;28;20459;-80
2022/12/23 08:38:39;;;;;;;148.52;56.38;;;2.20;99.90;;;;;;5032834;28;20116;-80
2022/12/23 08:41:10;;;;;;;146.73;57.97;;;2.30;99.90;;;;;;5033606;28;20901;-76
2022/12/23 08:43:37;;;;;;;181.02;75.47;;;2.30;99.90;;;;;;5033717;28;20025;-80
2022/12/23 08:46:02;;;;;;;176.75;77.35;;;2.40;99.90;;;;;;5032171;28;20502;-80
2022/12/23 08:48:28;;;;;;;116.90;54.35;;;2.40;99.90;;;;;;5033578;28;20095;-80
2022/12/23 08:50:54;;;;;;;81.40;39.13;;;2.50;99.90;;;;;;5033460;28;20013;-80
2022/12/23 08:53:20;;;;;;;82.40;40.80;;;2.50;99.90;;;;;;5033624;28;20467;-76
2022/12/23 08:55:46;;;;;;;67.25;34.28;;;2.60;99.90;;;;;;5032181;28;20026;-77
2022/12/23 08:58:14;;;;;;;69.22;33.13;;;2.70;99.90;;;;;;5033470;28;20391;-76
2022/12/23 09:00:40;;;;;;;54.55;30.85;;;2.70;99.90;;;;;;5032095;28;20025;-80
2022/12/23 09:03:06;;;;;;;53.05;28.05;;;2.80;99.90;;;;;;5033449;28;20034;-81
2022/12/23 09:05:32;;;;;;;41.95;25.33;;;2.80;99.90;;;;;;5031967;28;20033;-80
2022/12/23 09:07:58;;;;;;;45.95;27.88;;;2.90;99.90;;;;;;5032131;28;20087;-80
2022/12/23 09:10:24;;;;;;;51.40;30.00;;;3.00;99.90;;;;;;5032024;28;20108;-80
2022/12/23 09:12:50;;;;;;;54.42;29.25;;;3.10;99.90;;;;;;5038213;28;20431;-76
2022/12/23 09:15:16;;;;;;;51.15;28.33;;;3.10;99.90;;;;;;5051920;28;20017;-80
2022/12/23 09:17:43;;;;;;;48.13;27.98;;;3.20;99.90;;;;;;5057618;28;20496;-80
2022/12/23 09:20:09;;;;;;;42.08;25.48;;;3.30;99.90;;;;;;5058288;28;20049;-80
2022/12/23 09:22:35;;;;;;;51.65;26.77;;;3.30;99.90;;;;;;5058445;28;20060;-80
2022/12/23 09:25:01;;;;;;;62.47;35.05;;;3.40;99.90;;;;;;5059532;28;20064;-80
2022/12/23 09:27:26;;;;;;;75.88;41.55;;;3.40;99.90;;;;;;5059520;28;20025;-76
2022/12/23 09:29:52;;;;;;;47.53;28.40;;;3.50;99.90;;;;;;5059741;28;20489;-80
2022/12/23 09:32:18;;;;;;;39.78;25.15;;;3.60;99.90;;;;;;5059515;28;20024;-77
2022/12/23 09:34:44;;;;;;;35.97;22.63;;;3.60;99.90;;;;;;5059666;28;20032;-80
2022/12/23 09:37:11;;;;;;;45.15;23.75;;;3.70;99.90;;;;;;5059576;28;20533;-80
2022/12/23 09:39:37;;;;;;;52.17;26.23;;;3.90;99.90;;;;;;5059686;28;20029;-77
2022/12/23 09:42:21;;;;;;;48.85;26.83;;;4.00;99.90;;;;;;5058319;28;20025;-80
2022/12/23 09:44:56;;;;;;;76.80;37.00;;;4.00;99.90;;;;;;5058178;28;20036;-80
2022/12/23 09:47:26;;;;;;;50.72;25.23;;;4.10;99.90;;;;;;5058289;28;20036;-77
2022/12/23 09:49:59;;;;;;;58.75;29.00;;;4.20;99.90;;;;;;5059555;28;20020;-80
2022/12/23 09:52:37;;;;;;;69.90;30.73;;;4.20;99.90;;;;;;5059583;28;20032;-80
2022/12/23 09:55:03;;;;;;;63.05;29.85;;;4.30;99.90;;;;;;5059419;28;20107;-77
2022/12/23 09:57:34;;;;;;;317.75;107.05;;;4.30;99.90;;;;;;5059412;28;20048;-80
2022/12/23 10:00:11;;;;;;;148.50;57.75;;;4.40;99.90;;;;;;5059464;28;20052;-77
2022/12/23 10:02:58;;;;;;;102.38;41.53;;;4.40;99.90;;;;;;5058151;28;20032;-77
2022/12/23 10:05:34;;;;;;;69.65;29.67;;;4.40;99.90;;;;;;5059434;28;20078;-80
2022/12/23 10:08:20;;;;;;;103.95;38.00;;;4.40;99.90;;;;;;5059405;28;20033;-77
2022/12/23 10:10:47;;;;;;;81.93;32.70;;;4.50;99.90;;;;;;5059481;28;20139;-80
2022/12/23 10:13:33;;;;;;;37.95;20.20;;;4.50;99.90;;;;;;5059246;28;20485;-77
2022/12/23 10:16:22;;;;;;;50.53;26.55;;;4.50;99.90;;;;;;5043420;28;20021;-77
2022/12/23 10:19:03;;;;;;;31.65;20.05;;;4.60;99.90;;;;;;5039060;28;20076;-77
2022/12/23 10:21:34;;;;;;;36.28;22.10;;;4.70;99.90;;;;;;5039098;28;20432;-80
2022/12/23 10:24:15;;;;;;;26.52;17.33;;;4.80;99.90;;;;;;5039270;28;20021;-77
2022/12/23 10:26:56;;;;;;;29.92;16.98;;;4.90;99.90;;;;;;5039423;28;20073;-81
2022/12/23 10:29:24;;;;;;;26.05;17.42;;;4.80;99.90;;;;;;5056335;28;20051;-80
2022/12/23 10:31:56;;;;;;;30.08;18.63;;;4.90;99.90;;;;;;5055902;28;20462;-77
2022/12/23 10:34:39;;;;;;;29.02;18.10;;;5.00;99.90;;;;;;5054799;28;20115;-77
2022/12/23 10:37:16;;;;;;;31.42;18.17;;;5.00;99.90;;;;;;5055916;28;20029;-80
2022/12/23 10:40:02;;;;;;;26.30;16.27;;;5.00;99.90;;;;;;5055986;28;20021;-77
2022/12/23 10:42:42;;;;;;;30.25;18.45;;;5.10;99.90;;;;;;5054431;28;20120;-77
2022/12/23 10:45:07;;;;;;;33.45;21.70;;;5.00;99.90;;;;;;5054490;28;20095;-80
2022/12/23 10:47:42;;;;;;;33.22;21.08;;;5.00;99.90;;;;;;5055611;28;20025;-77
2022/12/23 10:50:31;;;;;;;28.70;19.77;;;5.00;99.90;;;;;;5054506;28;20032;-80
2022/12/23 10:53:00;;;;;;;31.48;19.35;;;4.90;99.90;;;;;;5054320;28;20025;-80
2022/12/23 10:55:29;;;;;;;28.95;17.25;;;4.90;99.90;;;;;;5055430;28;20028;-80
2022/12/23 10:58:00;;;;;;;30.08;18.80;;;4.90;99.90;;;;;;5055517;28;20025;-81
2022/12/23 11:00:25;;;;;;;30.65;18.17;;;4.90;99.90;;;;;;5055594;28;20049;-77
2022/12/23 11:03:09;;;;;;;29.70;18.77;;;4.90;99.90;;;;;;5055376;28;20465;-80
2022/12/23 11:05:35;;;;;;;30.83;18.80;;;4.90;99.90;;;;;;5054096;28;20128;-77
2022/12/23 11:08:01;;;;;;;30.92;19.15;;;4.90;99.90;;;;;;5055349;28;20059;-78
2022/12/23 11:10:31;;;;;;;29.75;19.25;;;4.80;99.90;;;;;;5054022;28;20458;-80
2022/12/23 11:12:58;;;;;;;26.98;18.55;;;4.80;99.90;;;;;;5055182;28;20024;-81
2022/12/23 11:15:31;;;;;;;32.40;17.58;;;4.80;99.90;;;;;;5055191;28;20025;-77
2022/12/23 11:18:09;;;;;;;24.90;16.95;;;4.80;99.90;;;;;;5053717;28;20064;-77
2022/12/23 11:20:36;;;;;;;29.40;18.85;;;4.70;99.90;;;;;;5054810;28;20060;-77
2022/12/23 11:23:03;;;;;;;28.65;17.58;;;4.70;99.90;;;;;;5053616;28;20070;-81
2022/12/23 11:25:35;;;;;;;29.10;17.27;;;4.80;99.90;;;;;;5054736;28;20441;-81
2022/12/23 11:28:09;;;;;;;26.45;16.38;;;4.80;99.90;;;;;;5050254;28;20026;-81
2022/12/23 11:30:52;;;;;;;26.50;17.52;;;4.80;99.90;;;;;;5034310;28;20033;-77
2022/12/23 11:33:37;;;;;;;;;;;4.90;99.90;;;;;;5040188;28;20020;-77
2022/12/23 11:36:14;;;;;;;24.15;15.07;;;4.90;99.90;;;;;;5052593;28;19904;-77
2022/12/23 11:38:58;;;;;;;22.60;14.32;;;4.90;99.90;;;;;;5052573;28;20497;-77
2022/12/23 11:41:27;;;;;;;24.77;14.02;;;5.00;99.90;;;;;;5051336;28;20033;-77
2022/12/23 11:44:19;;;;;;;20.75;13.00;;;5.00;99.90;;;;;;5053650;28;20067;-77
2022/12/23 11:46:44;;;;;;;19.92;13.45;;;5.00;99.90;;;;;;5049734;28;20041;-81
2022/12/23 11:49:15;;;;;;;23.23;14.52;;;4.90;99.90;;;;;;5051349;28;20021;-79
2022/12/23 11:51:42;;;;;;;28.15;15.38;;;4.90;99.90;;;;;;5050784;28;20483;-81
2022/12/23 11:54:18;;;;;;;22.75;15.27;;;4.90;99.90;;;;;;5053384;28;20032;-81
2022/12/23 11:56:46;;;;;;;22.67;16.50;;;4.90;99.90;;;;;;5053508;28;20021;-78
2022/12/23 11:59:33;;;;;;;28.33;17.90;;;4.90;99.90;;;;;;5053302;28;20033;-77
2022/12/23 12:02:03;;;;;;;30.63;17.73;;;4.80;99.90;;;;;;5052128;28;20017;-77
2022/12/23 12:04:33;;;;;;;28.05;18.33;;;4.80;99.90;;;;;;5053174;28;20075;-77
2022/12/23 12:07:00;;;;;;;37.20;21.55;;;4.80;99.90;;;;;;5052225;28;20108;-77
2022/12/23 12:09:28;;;;;;;29.75;18.92;;;4.80;99.90;;;;;;5051882;28;20029;-81
2022/12/23 12:12:11;;;;;;;35.92;19.80;;;4.80;99.90;;;;;;5053140;28;20466;-81
2022/12/23 12:14:47;;;;;;;30.73;19.10;;;4.80;99.90;;;;;;5052289;28;20425;-81
2022/12/23 12:17:21;;;;;;;31.80;18.42;;;4.80;99.90;;;;;;5053162;28;20083;-81
2022/12/23 12:20:21;;;;;;;31.05;19.20;;;4.80;99.90;;;;;;5052693;28;20391;-81
2022/12/23 12:22:49;;;;;;;26.88;17.75;;;4.80;99.90;;;;;;5052984;28;20406;-81
2022/12/23 12:25:19;;;;;;;29.70;18.75;;;4.80;99.90;;;;;;5052822;28;20574;-81
2022/12/23 12:27:53;;;;;;;30.77;19.35;;;4.80;99.90;;;;;;5052959;28;20033;-81
2022/12/23 12:30:19;;;;;;;33.40;19.80;;;4.80;99.90;;;;;;5051395;28;20043;-77
2022/12/23 12:33:13;;;;;;;36.92;22.90;;;4.90;99.90;;;;;;5049899;28;20074;-78
2022/12/23 12:35:58;;;;;;;36.78;21.95;;;4.80;99.90;;;;;;5047541;28;20053;-81
2022/12/23 12:38:27;;;;;;;36.92;23.05;;;4.80;99.90;;;;;;5049158;28;20030;-80
2022/12/23 12:41:06;;;;;;;42.53;22.25;;;4.80;99.90;;;;;;5051710;28;20009;-77
2022/12/23 12:43:36;;;;;;;40.63;24.80;;;4.80;99.90;;;;;;5051465;28;20021;-77
2022/12/23 12:46:05;;;;;;;39.90;23.42;;;4.80;99.90;;;;;;5051693;28;20398;-80
2022/12/23 12:48:37;;;;;;;31.88;18.98;;;4.80;99.90;;;;;;5053084;28;20395;-81
2022/12/23 12:51:17;;;;;;;30.75;16.75;;;4.70;99.90;;;;;;5053270;28;20113;-77
2022/12/23 12:54:35;;;;;;;38.47;20.25;;;4.70;99.90;;;;;;5053450;28;20025;-77
2022/12/23 12:57:01;;;;;;;28.70;17.58;;;4.70;99.90;;;;;;5046176;28;20514;-80
2022/12/23 12:59:35;;;;;;;28.65;16.55;;;4.70;99.90;;;;;;5051759;28;20025;-77
2022/12/23 13:02:38;;;;;;;31.27;15.98;;;4.70;99.90;;;;;;5052944;28;20021;-81
2022/12/23 13:05:40;;;;;;;22.90;14.25;;;4.60;99.90;;;;;;5049792;28;20497;-77
2022/12/23 13:08:28;;;;;;;31.20;16.75;;;4.70;99.90;;;;;;5046903;28;20033;-77
2022/12/23 13:11:20;;;;;;;28.65;17.48;;;4.70;99.90;;;;;;5050321;28;20032;-81
2022/12/23 13:13:55;;;;;;;39.15;18.42;;;4.60;99.90;;;;;;5048345;28;20454;-77
2022/12/23 13:16:45;;;;;;;34.85;19.08;;;4.60;99.90;;;;;;5033326;28;20025;-80